createdAt,value
2023-01-17T00:01:14.778Z,6.62
2023-01-17T00:04:00.174Z,6.55
2023-01-17T00:06:45.573Z,6.53
2023-01-17T00:09:31.359Z,6.50
2023-01-17T00:11:58.540Z,6.53
2023-01-17T00:14:25.508Z,6.51
2023-01-17T00:16:52.306Z,6.48
2023-01-17T00:19:48.035Z,6.34
2023-01-17T00:22:51.455Z,6.07
2023-01-17T00:25:42.344Z,5.88
2023-01-17T00:28:09.252Z,5.80
2023-01-17T00:30:39.190Z,5.69
2023-01-17T00:33:06.328Z,5.73
2023-01-17T00:35:36.680Z,5.69
2023-01-17T00:38:19.320Z,5.68
2023-01-17T00:40:47.172Z,5.58
2023-01-17T00:43:45.038Z,5.49
2023-01-17T00:46:31.043Z,5.42
2023-01-17T00:49:19.064Z,5.35
2023-01-17T00:52:04.830Z,5.30
2023-01-17T00:54:51.027Z,5.27
2023-01-17T00:57:39.408Z,5.21
2023-01-17T01:04:00.723Z,5.06
2023-01-17T01:06:47.126Z,5.04
2023-01-17T01:09:32.861Z,5.06
2023-01-17T01:12:19.684Z,5.03
2023-01-17T01:15:05.114Z,5.00
2023-01-17T01:17:50.934Z,5.00
2023-01-17T01:20:36.354Z,5.10
2023-01-17T01:23:25.084Z,5.16
2023-01-17T01:26:10.817Z,5.12
2023-01-17T01:28:56.459Z,5.04
2023-01-17T01:31:42.031Z,5.08
2023-01-17T01:34:09.123Z,5.00
2023-01-17T01:36:36.207Z,5.01
2023-01-17T01:39:06.473Z,5.06
2023-01-17T01:41:33.295Z,5.05
2023-01-17T01:44:03.716Z,5.07
2023-01-17T01:46:36.148Z,5.03
2023-01-17T01:49:21.013Z,5.01
2023-01-17T01:52:03.267Z,4.99
2023-01-17T01:54:45.214Z,4.94
2023-01-17T01:57:18.291Z,4.93
2023-01-17T01:59:48.737Z,4.92
2023-01-17T02:02:17.985Z,4.94
2023-01-17T02:04:45.329Z,4.86
2023-01-17T02:07:20.932Z,4.82
2023-01-17T02:09:48.916Z,4.85
2023-01-17T02:12:20.659Z,4.87
2023-01-17T02:14:47.323Z,4.87
2023-01-17T02:17:31.595Z,4.86
2023-01-17T02:20:26.875Z,4.88
2023-01-17T02:23:19.717Z,4.95
2023-01-17T02:26:05.131Z,5.10
2023-01-17T02:28:46.170Z,5.22
2023-01-17T02:31:24.031Z,5.24
2023-01-17T02:33:55.692Z,5.37
2023-01-17T02:36:43.943Z,5.51
2023-01-17T02:39:25.898Z,5.65
2023-01-17T02:42:00.937Z,5.76
2023-01-17T02:44:50.208Z,5.83
2023-01-17T02:47:24.233Z,5.83
2023-01-17T02:49:53.570Z,5.82
2023-01-17T02:52:28.789Z,5.85
2023-01-17T02:55:07.919Z,5.80
2023-01-17T02:57:50.673Z,5.72
2023-01-17T03:00:32.620Z,5.70
2023-01-17T03:03:12.359Z,5.69
2023-01-17T03:05:49.690Z,5.64
2023-01-17T03:08:23.155Z,5.60
2023-01-17T03:10:55.243Z,5.48
2023-01-17T03:13:26.038Z,5.40
2023-01-17T03:15:53.563Z,5.29
2023-01-17T03:18:27.429Z,5.19
2023-01-17T03:20:57.123Z,5.02
2023-01-17T03:23:28.977Z,4.91
2023-01-17T03:26:02.380Z,4.81
2023-01-17T03:28:34.022Z,4.86
2023-01-17T03:31:01.798Z,4.91
2023-01-17T03:33:50.851Z,5.05
2023-01-17T03:36:18.999Z,5.22
2023-01-17T03:38:49.534Z,5.35
2023-01-17T03:41:28.556Z,5.46
2023-01-17T03:44:06.458Z,5.59
2023-01-17T03:46:34.486Z,5.70
2023-01-17T03:49:01.339Z,5.78
2023-01-17T03:51:31.852Z,5.62
2023-01-17T03:54:02.062Z,5.32
2023-01-17T03:56:38.357Z,5.42
2023-01-17T03:59:06.712Z,5.40
2023-01-17T04:01:42.105Z,5.37
2023-01-17T04:04:11.371Z,5.34
2023-01-17T04:06:46.937Z,5.26
2023-01-17T04:09:13.594Z,5.29
2023-01-17T04:11:43.330Z,5.28
2023-01-17T04:14:10.319Z,5.29
2023-01-17T04:16:39.518Z,5.35
2023-01-17T04:19:06.710Z,5.40
2023-01-17T04:21:36.371Z,5.51
2023-01-17T04:24:03.024Z,5.58
2023-01-17T04:26:29.738Z,5.58
2023-01-17T04:28:56.586Z,5.39
2023-01-17T04:31:23.258Z,5.43
2023-01-17T04:33:50.059Z,5.46
2023-01-17T04:36:16.784Z,5.35
2023-01-17T04:38:44.881Z,5.40
2023-01-17T04:41:13.744Z,5.53
2023-01-17T04:43:40.607Z,5.59
2023-01-17T04:46:10.277Z,5.48
2023-01-17T04:48:37.125Z,5.17
2023-01-17T04:51:07.797Z,5.05
2023-01-17T04:53:34.629Z,5.06
2023-01-17T04:56:02.115Z,5.07
2023-01-17T04:58:28.761Z,5.08
2023-01-17T05:00:56.009Z,5.08
2023-01-17T05:03:25.964Z,5.22
2023-01-17T05:05:53.575Z,5.41
2023-01-17T05:08:24.477Z,5.47
2023-01-17T05:10:53.143Z,5.47
2023-01-17T05:13:20.336Z,5.37
2023-01-17T05:15:47.148Z,5.32
2023-01-17T05:18:15.635Z,5.35
2023-01-17T05:20:45.610Z,5.43
2023-01-17T05:23:12.969Z,5.51
2023-01-17T05:25:47.336Z,5.51
2023-01-17T05:28:14.378Z,5.57
2023-01-17T05:30:41.225Z,5.59
2023-01-17T05:33:10.407Z,5.55
2023-01-17T05:35:37.308Z,5.46
2023-01-17T05:38:04.254Z,5.38
2023-01-17T05:40:33.053Z,5.38
2023-01-17T05:43:00.379Z,5.44
2023-01-17T05:45:32.771Z,5.43
2023-01-17T05:47:59.890Z,5.41
2023-01-17T05:50:28.685Z,5.45
2023-01-17T05:52:57.524Z,5.45
2023-01-17T05:55:27.274Z,5.48
2023-01-17T05:57:55.079Z,5.55
2023-01-17T06:00:22.504Z,5.59
2023-01-17T06:02:53.263Z,5.65
2023-01-17T06:05:24.401Z,5.61
2023-01-17T06:07:51.141Z,5.65
2023-01-17T06:10:21.859Z,5.64
2023-01-17T06:12:54.612Z,5.68
2023-01-17T06:15:21.571Z,5.69
2023-01-17T06:17:48.511Z,5.72
2023-01-17T06:20:15.269Z,5.76
2023-01-17T06:22:44.052Z,5.81
2023-01-17T06:25:12.331Z,5.82
2023-01-17T06:27:39.933Z,5.73
2023-01-17T06:30:09.784Z,5.75
2023-01-17T06:32:36.764Z,5.77
2023-01-17T06:35:03.479Z,5.80
2023-01-17T06:37:32.972Z,5.83
2023-01-17T06:40:00.505Z,5.84
2023-01-17T06:42:27.362Z,5.85
2023-01-17T06:44:54.289Z,5.87
2023-01-17T06:47:23.455Z,5.86
2023-01-17T06:49:50.909Z,5.88
2023-01-17T06:52:20.685Z,5.85
2023-01-17T06:54:50.263Z,5.86
2023-01-17T06:57:16.803Z,5.87
2023-01-17T06:59:43.582Z,5.83
2023-01-17T07:02:11.924Z,5.84
2023-01-17T07:04:41.099Z,5.81
2023-01-17T07:07:08.554Z,5.83
2023-01-17T07:09:36.035Z,5.84
2023-01-17T07:12:02.774Z,5.87
2023-01-17T07:14:32.882Z,5.89
2023-01-17T07:16:59.572Z,5.93
2023-01-17T07:19:27.195Z,5.95
2023-01-17T07:21:57.538Z,6.00
2023-01-17T07:24:27.120Z,5.99
2023-01-17T07:26:54.051Z,5.92
2023-01-17T07:29:21.241Z,5.95
2023-01-17T07:31:49.077Z,5.96
2023-01-17T07:34:15.883Z,5.95
2023-01-17T07:36:43.029Z,5.92
2023-01-17T07:39:09.822Z,5.87
2023-01-17T07:41:41.253Z,5.80
2023-01-17T07:44:10.949Z,5.75
2023-01-17T07:46:39.647Z,5.65
2023-01-17T07:49:06.530Z,5.56
2023-01-17T07:51:36.489Z,5.48
2023-01-17T07:54:04.799Z,5.41
2023-01-17T07:56:34.633Z,5.29
2023-01-17T07:59:10.177Z,5.22
2023-01-17T08:01:37.595Z,5.16
2023-01-17T08:04:05.466Z,5.12
2023-01-17T08:06:40.451Z,5.12
2023-01-17T08:09:07.744Z,5.14
2023-01-17T08:11:39.576Z,5.13
2023-01-17T08:14:08.173Z,5.12
2023-01-17T08:17:01.595Z,5.19
2023-01-17T08:19:31.557Z,5.41
2023-01-17T08:22:02.298Z,5.43
2023-01-17T08:24:31.985Z,5.35
2023-01-17T08:26:59.647Z,5.17
2023-01-17T08:29:28.085Z,5.13
2023-01-17T08:31:55.831Z,5.25
2023-01-17T08:34:33.934Z,5.47
2023-01-17T08:37:07.937Z,5.70
2023-01-17T08:39:38.488Z,5.84
2023-01-17T08:42:08.658Z,5.94
2023-01-17T08:44:39.548Z,5.98
2023-01-17T08:47:07.503Z,6.01
2023-01-17T08:49:34.780Z,6.12
2023-01-17T08:52:03.413Z,6.20
2023-01-17T08:54:32.793Z,6.41
2023-01-17T08:56:59.839Z,6.49
2023-01-17T08:59:27.660Z,6.50
2023-01-17T09:02:01.711Z,6.45
2023-01-17T09:04:28.415Z,6.41
2023-01-17T09:06:55.466Z,6.46
2023-01-17T09:09:25.764Z,6.57
2023-01-17T09:11:55.731Z,6.63
2023-01-17T09:14:27.513Z,6.59
2023-01-17T09:16:55.205Z,6.52
2023-01-17T09:19:27.708Z,6.57
2023-01-17T09:22:04.046Z,6.71
2023-01-17T09:24:36.101Z,7.02
2023-01-17T09:27:09.789Z,7.36
2023-01-17T09:29:44.041Z,7.64
2023-01-17T09:32:13.558Z,7.79
2023-01-17T09:34:40.932Z,7.76
2023-01-17T09:37:11.461Z,7.80
2023-01-17T09:39:41.576Z,7.86
2023-01-17T09:42:19.679Z,7.93
2023-01-17T09:44:48.164Z,7.98
2023-01-17T09:47:41.089Z,8.04
2023-01-17T09:50:18.029Z,8.17
2023-01-17T09:52:45.347Z,8.36
2023-01-17T09:55:18.935Z,8.52
2023-01-17T09:58:05.229Z,8.51
2023-01-17T10:00:41.647Z,8.49
2023-01-17T10:03:30.011Z,8.41
2023-01-17T10:06:09.804Z,8.19
2023-01-17T10:08:51.012Z,8.09
2023-01-17T10:11:34.150Z,8.22
2023-01-17T10:14:12.156Z,8.12
2023-01-17T10:17:02.098Z,7.91
2023-01-17T10:19:40.754Z,7.96
2023-01-17T10:22:26.389Z,8.03
2023-01-17T10:25:03.240Z,8.09
2023-01-17T10:27:42.729Z,8.03
2023-01-17T10:30:18.005Z,7.95
2023-01-17T10:32:50.810Z,7.97
2023-01-17T10:35:30.382Z,7.85
2023-01-17T10:37:58.714Z,7.66
2023-01-17T10:40:44.386Z,7.47
2023-01-17T10:43:24.700Z,7.59
2023-01-17T10:45:55.656Z,7.68
2023-01-17T10:48:40.567Z,7.79
2023-01-17T10:51:23.515Z,8.07
2023-01-17T10:54:03.064Z,8.18
2023-01-17T10:56:29.918Z,8.22
2023-01-17T10:59:20.018Z,8.52
2023-01-17T11:01:58.345Z,8.75
2023-01-17T11:04:38.625Z,8.78
2023-01-17T11:07:31.315Z,8.39
2023-01-17T11:10:01.317Z,8.00
2023-01-17T11:12:39.986Z,7.99
2023-01-17T11:15:10.367Z,7.76
2023-01-17T11:17:53.904Z,7.44
2023-01-17T11:20:28.451Z,7.21
2023-01-17T11:23:07.629Z,7.53
2023-01-17T11:25:37.459Z,7.93
2023-01-17T11:28:08.648Z,7.70
2023-01-17T11:30:53.535Z,7.43
2023-01-17T11:33:56.919Z,7.50
2023-01-17T11:36:34.490Z,7.53
2023-01-17T11:39:05.051Z,7.40
2023-01-17T11:41:42.158Z,7.11
2023-01-17T11:44:26.312Z,7.04
2023-01-17T11:47:09.874Z,7.00
2023-01-17T11:49:36.435Z,8.22
2023-01-17T11:52:24.123Z,10.10
2023-01-17T11:54:56.582Z,12.32
2023-01-17T11:57:26.280Z,13.90
2023-01-17T12:00:11.757Z,13.84
2023-01-17T12:03:03.142Z,12.76
2023-01-17T12:05:48.945Z,12.00
2023-01-17T12:08:32.223Z,11.76
2023-01-17T12:11:03.752Z,11.90
2023-01-17T12:13:49.711Z,11.78
2023-01-17T12:16:36.902Z,12.10
2023-01-17T12:19:12.552Z,12.71
2023-01-17T12:21:47.242Z,13.19
2023-01-17T12:24:17.255Z,13.46
2023-01-17T12:26:53.176Z,12.75
2023-01-17T12:29:42.248Z,11.86
2023-01-17T12:32:12.481Z,10.84
2023-01-17T12:34:57.362Z,10.46
2023-01-17T12:37:34.627Z,10.60
2023-01-17T12:40:08.003Z,10.97
2023-01-17T12:42:43.847Z,11.31
2023-01-17T12:45:20.936Z,11.55
2023-01-17T12:47:54.572Z,11.82
2023-01-17T12:50:29.219Z,12.15
2023-01-17T12:53:04.935Z,12.55
2023-01-17T12:55:40.888Z,12.60
2023-01-17T12:58:12.950Z,12.63
2023-01-17T13:00:40.059Z,12.68
2023-01-17T13:03:20.930Z,12.79
2023-01-17T13:05:48.954Z,12.46
2023-01-17T13:08:26.346Z,11.99
2023-01-17T13:11:10.601Z,11.36
2023-01-17T13:13:42.273Z,10.51
2023-01-17T13:16:18.044Z,9.89
2023-01-17T13:18:54.885Z,9.37
2023-01-17T13:21:32.530Z,9.23
2023-01-17T13:24:14.760Z,9.07
2023-01-17T13:26:51.139Z,8.91
2023-01-17T13:29:31.082Z,8.74
2023-01-17T13:32:16.819Z,8.80
2023-01-17T13:34:56.226Z,8.66
2023-01-17T13:37:43.597Z,8.56
2023-01-17T13:40:32.128Z,8.48
2023-01-17T13:43:02.254Z,8.33
2023-01-17T13:45:32.703Z,8.43
2023-01-17T13:48:21.167Z,8.33
2023-01-17T13:50:57.608Z,8.32
2023-01-17T13:53:40.605Z,8.28
2023-01-17T13:56:14.178Z,8.16
2023-01-17T13:58:50.643Z,8.05
2023-01-17T14:01:23.548Z,7.97
2023-01-17T14:03:53.227Z,7.76
2023-01-17T14:06:41.793Z,7.75
2023-01-17T14:09:08.476Z,7.70
2023-01-17T14:11:36.435Z,7.65
2023-01-17T14:14:23.815Z,7.68
2023-01-17T14:16:59.137Z,7.64
2023-01-17T14:19:27.191Z,7.78
2023-01-17T14:22:16.276Z,7.79
2023-01-17T14:25:02.340Z,7.76
2023-01-17T14:27:34.701Z,7.80
2023-01-17T14:30:09.712Z,7.73
2023-01-17T14:32:38.603Z,7.68
2023-01-17T14:35:06.610Z,7.67
2023-01-17T14:37:46.605Z,7.68
2023-01-17T14:40:16.881Z,7.71
2023-01-17T14:42:52.584Z,7.70
2023-01-17T14:45:24.198Z,7.66
2023-01-17T14:47:53.978Z,7.65
2023-01-17T14:50:25.264Z,7.63
2023-01-17T14:53:16.061Z,7.64
2023-01-17T14:55:51.205Z,7.61
2023-01-17T14:58:23.044Z,7.38
2023-01-17T15:00:53.964Z,7.32
2023-01-17T15:03:28.741Z,7.35
2023-01-17T15:05:56.931Z,7.32
2023-01-17T15:08:28.230Z,7.29
2023-01-17T15:10:59.500Z,7.30
2023-01-17T15:13:44.879Z,7.30
2023-01-17T15:16:18.805Z,7.30
2023-01-17T15:18:50.470Z,7.29
2023-01-17T15:21:21.692Z,7.23
2023-01-17T15:23:50.812Z,7.16
2023-01-17T15:26:21.925Z,7.11
2023-01-17T15:29:11.585Z,7.00
2023-01-17T15:31:55.797Z,6.95
2023-01-17T15:34:32.002Z,6.93
2023-01-17T15:37:01.435Z,6.94
2023-01-17T15:39:30.384Z,6.95
2023-01-17T15:42:00.545Z,6.90
2023-01-17T15:44:42.687Z,6.90
2023-01-17T15:47:28.539Z,6.87
2023-01-17T15:49:57.289Z,6.81
2023-01-17T15:52:46.221Z,6.66
2023-01-17T15:55:39.287Z,6.53
2023-01-17T15:58:30.716Z,6.40
2023-01-17T16:00:59.801Z,6.38
2023-01-17T16:03:36.372Z,6.28
2023-01-17T16:06:26.243Z,6.24
2023-01-17T16:08:56.038Z,6.24
2023-01-17T16:11:26.907Z,6.22
2023-01-17T16:13:57.214Z,6.24
2023-01-17T16:16:35.681Z,6.21
2023-01-17T16:19:03.214Z,6.18
2023-01-17T16:21:34.502Z,6.21
2023-01-17T16:24:03.185Z,6.17
2023-01-17T16:26:29.999Z,6.20
2023-01-17T16:29:00.390Z,6.23
2023-01-17T16:31:33.681Z,6.16
2023-01-17T16:34:00.623Z,6.14
2023-01-17T16:36:28.771Z,6.18
2023-01-17T16:38:59.479Z,6.21
2023-01-17T16:41:27.183Z,6.16
2023-01-17T16:44:00.613Z,6.16
2023-01-17T16:46:31.124Z,6.14
2023-01-17T16:49:01.163Z,6.12
2023-01-17T16:51:28.498Z,6.12
2023-01-17T16:53:58.515Z,6.06
2023-01-17T16:56:29.388Z,5.96
2023-01-17T16:58:56.972Z,5.90
2023-01-17T17:01:27.134Z,5.89
2023-01-17T17:04:02.014Z,5.83
2023-01-17T17:06:32.093Z,5.79
2023-01-17T17:08:59.557Z,5.79
2023-01-17T17:11:26.728Z,5.81
2023-01-17T17:13:53.632Z,5.83
2023-01-17T17:16:22.452Z,5.81
2023-01-17T17:19:00.655Z,5.76
2023-01-17T17:21:28.837Z,5.70
2023-01-17T17:23:59.910Z,5.64
2023-01-17T17:26:31.595Z,5.60
2023-01-17T17:29:00.635Z,5.55
2023-01-17T17:31:28.789Z,5.51
2023-01-17T17:34:03.443Z,5.45
2023-01-17T17:36:32.468Z,5.42
2023-01-17T17:39:02.508Z,5.39
2023-01-17T17:41:30.736Z,5.38
2023-01-17T17:43:57.879Z,5.36
2023-01-17T17:46:27.873Z,5.34
2023-01-17T17:48:56.353Z,5.39
2023-01-17T17:51:32.545Z,5.41
2023-01-17T17:54:01.820Z,5.55
2023-01-17T17:56:30.486Z,5.56
2023-01-17T17:59:00.976Z,5.60
2023-01-17T18:01:28.524Z,5.66
2023-01-17T18:03:59.664Z,5.59
2023-01-17T18:06:27.107Z,5.59
2023-01-17T18:08:56.941Z,5.43
2023-01-17T18:11:29.922Z,5.35
2023-01-17T18:14:00.127Z,5.28
2023-01-17T18:16:38.225Z,5.21
2023-01-17T18:19:05.603Z,5.20
2023-01-17T18:21:34.864Z,5.21
2023-01-17T18:24:09.183Z,5.22
2023-01-17T18:26:41.787Z,5.28
2023-01-17T18:29:15.814Z,5.36
2023-01-17T18:31:46.001Z,5.35
2023-01-17T18:34:15.932Z,5.39
2023-01-17T18:36:43.066Z,5.49
2023-01-17T18:39:12.303Z,5.54
2023-01-17T18:41:39.783Z,5.66
2023-01-17T18:44:10.431Z,5.76
2023-01-17T18:46:41.815Z,5.79
2023-01-17T18:49:11.648Z,5.79
2023-01-17T18:51:40.461Z,5.74
2023-01-17T18:54:09.100Z,5.64
2023-01-17T18:56:40.639Z,5.59
2023-01-17T18:59:15.430Z,5.56
2023-01-17T19:01:45.129Z,5.66
2023-01-17T19:04:13.343Z,5.67
2023-01-17T19:06:44.639Z,5.65
2023-01-17T19:09:12.679Z,5.70
2023-01-17T19:11:45.229Z,5.72
2023-01-17T19:14:13.187Z,5.70
2023-01-17T19:16:47.963Z,5.70
2023-01-17T19:19:16.360Z,5.64
2023-01-17T19:21:43.889Z,5.56
2023-01-17T19:24:13.745Z,5.51
2023-01-17T19:26:40.576Z,5.42
2023-01-17T19:29:11.349Z,5.40
2023-01-17T19:31:44.448Z,5.39
2023-01-17T19:34:16.821Z,5.45
2023-01-17T19:36:46.347Z,5.49
2023-01-17T19:39:13.558Z,5.49
2023-01-17T19:41:47.594Z,5.45
2023-01-17T19:44:16.855Z,5.40
2023-01-17T19:46:44.188Z,5.38
2023-01-17T19:49:10.885Z,5.36
2023-01-17T19:51:40.261Z,5.33
2023-01-17T19:54:16.307Z,5.33
2023-01-17T19:56:53.407Z,5.36
2023-01-17T19:59:26.316Z,5.35
2023-01-17T20:02:03.103Z,5.36
2023-01-17T20:04:34.691Z,5.37
2023-01-17T20:07:04.448Z,5.36
2023-01-17T20:09:34.233Z,5.37
2023-01-17T20:12:02.561Z,5.44
2023-01-17T20:14:32.605Z,5.62
2023-01-17T20:17:07.669Z,5.72
2023-01-17T20:19:37.610Z,5.79
2023-01-17T20:22:10.176Z,5.88
2023-01-17T20:24:39.861Z,5.94
2023-01-17T20:27:09.866Z,6.01
2023-01-17T20:29:44.094Z,6.09
2023-01-17T20:32:10.760Z,6.07
2023-01-17T20:34:40.094Z,6.09
2023-01-17T20:37:09.870Z,6.15
2023-01-17T20:39:39.302Z,6.09
2023-01-17T20:42:06.813Z,5.99
2023-01-17T20:44:38.285Z,5.93
2023-01-17T20:47:11.572Z,5.95
2023-01-17T20:49:44.747Z,5.95
2023-01-17T20:52:15.481Z,5.87
2023-01-17T20:54:43.323Z,5.86
2023-01-17T20:57:15.906Z,5.95
2023-01-17T20:59:42.762Z,6.07
2023-01-17T21:02:12.689Z,6.16
2023-01-17T21:04:42.295Z,6.25
2023-01-17T21:07:10.511Z,6.34
2023-01-17T21:09:41.595Z,6.41
2023-01-17T21:12:10.923Z,6.40
2023-01-17T21:14:46.577Z,6.36
2023-01-17T21:17:16.406Z,6.34
2023-01-17T21:19:44.149Z,6.31
2023-01-17T21:22:11.338Z,6.30
2023-01-17T21:24:44.732Z,6.20
2023-01-17T21:27:19.769Z,5.98
2023-01-17T21:29:53.065Z,5.82
2023-01-17T21:32:24.099Z,5.66
2023-01-17T21:34:53.513Z,5.66
2023-01-17T21:37:25.961Z,5.64
2023-01-17T21:39:57.089Z,5.56
2023-01-17T21:42:30.448Z,5.60
2023-01-17T21:44:57.155Z,5.60
2023-01-17T21:47:31.200Z,5.55
2023-01-17T21:50:04.358Z,5.49
2023-01-17T21:52:32.052Z,5.51
2023-01-17T21:55:18.084Z,5.61
2023-01-17T21:58:07.966Z,5.81
2023-01-17T22:00:37.528Z,5.94
2023-01-17T22:03:07.073Z,6.05
2023-01-17T22:05:35.036Z,6.16
2023-01-17T22:08:14.824Z,6.21
2023-01-17T22:11:15.188Z,6.18
2023-01-17T22:13:43.668Z,6.20
2023-01-17T22:18:56.480Z,6.33
2023-01-17T22:21:29.480Z,6.35
2023-01-17T22:24:02.850Z,6.39
2023-01-17T22:26:32.198Z,6.40
2023-01-17T22:29:04.585Z,6.36
2023-01-17T22:31:37.359Z,6.29
2023-01-17T22:34:36.866Z,6.22
2023-01-17T22:37:11.280Z,6.15
2023-01-17T22:39:41.495Z,6.11
2023-01-17T22:42:14.984Z,6.03
2023-01-17T22:44:44.695Z,6.02
2023-01-17T22:47:13.491Z,6.02
2023-01-17T22:49:49.562Z,5.94
2023-01-17T22:52:27.692Z,5.89
2023-01-17T22:55:08.784Z,5.96
2023-01-17T22:57:35.806Z,6.04
2023-01-17T23:00:19.913Z,6.04
2023-01-17T23:02:52.477Z,6.08
2023-01-17T23:05:46.679Z,6.09
2023-01-17T23:08:23.305Z,6.05
2023-01-17T23:11:11.731Z,6.00
2023-01-17T23:13:47.089Z,5.93
2023-01-17T23:16:45.004Z,5.86
2023-01-17T23:19:24.490Z,5.76
2023-01-17T23:22:27.175Z,5.73
2023-01-17T23:25:00.643Z,5.72
2023-01-17T23:27:46.217Z,5.71
2023-01-17T23:30:17.363Z,5.65
2023-01-17T23:32:51.751Z,5.65
2023-01-17T23:35:22.642Z,5.64
2023-01-17T23:38:17.873Z,5.54
2023-01-17T23:41:06.468Z,5.44
2023-01-17T23:43:33.912Z,5.48
2023-01-17T23:46:25.357Z,5.49
2023-01-17T23:49:02.936Z,5.54
2023-01-17T23:51:29.846Z,5.39
2023-01-17T23:54:22.682Z,5.27
2023-01-17T23:56:52.733Z,5.36
2023-01-17T23:59:30.656Z,5.37
